Time;durP1;ratioP1;P1;durP2;ratioP2;P2;SDS_P1;SDS_P2;PMS_P1;PMS_P2;Temp;Humidity;BMP_temperature;BMP_pressure;BME280_temperature;BME280_humidity;BME280_pressure;Samples;Min_cycle;Max_cycle;Signal;HPM_P1;HPM_P2
2022/11/24 00:00:19;;;;;;;11.18;5.68;;;;;;;;;;5117944;28;20200;-67
2022/11/24 00:02:46;;;;;;;17.45;6.38;;;;;;;;;;5117417;28;20216;-67
2022/11/24 00:05:14;;;;;;;12.50;4.95;;;;;;;;;;5117611;28;20193;-67
2022/11/24 00:07:42;;;;;;;12.60;5.32;;;;;;;;;;5117352;28;20192;-67
2022/11/24 00:10:10;;;;;;;10.88;5.68;;;;;;;;;;5117642;28;20188;-67
2022/11/24 00:12:37;;;;;;;10.75;5.25;;;;;;;;;;5117720;28;20199;-67
2022/11/24 00:15:04;;;;;;;19.77;6.35;;;;;;;;;;5117014;28;20203;-66
2022/11/24 00:17:32;;;;;;;12.35;4.80;;;;;;;;;;5117200;28;20193;-67
2022/11/24 00:19:59;;;;;;;17.45;6.03;;;;;;;;;;5117705;28;20189;-66
2022/11/24 00:22:26;;;;;;;12.88;4.70;;;;;;;;;;5116732;28;20216;-67
2022/11/24 00:24:55;;;;;;;8.93;5.03;;;;;;;;;;5117065;28;20554;-66
2022/11/24 00:27:22;;;;;;;9.90;5.90;;;;;;;;;;5117111;28;20284;-66
2022/11/24 00:29:49;;;;;;;21.73;6.75;;;;;;;;;;5116943;28;20598;-67
2022/11/24 00:32:17;;;;;;;18.25;6.28;;;;;;;;;;5116999;28;20197;-66
2022/11/24 00:34:44;;;;;;;22.27;5.35;;;;;;;;;;5116944;28;20188;-66
2022/11/24 00:37:11;;;;;;;18.55;6.90;;;;;;;;;;5116663;28;20201;-67
2022/11/24 00:39:38;;;;;;;25.50;5.88;;;;;;;;;;5116471;28;20193;-66
2022/11/24 00:42:07;;;;;;;17.27;5.90;;;;;;;;;;5116057;28;20236;-66
2022/11/24 00:44:34;;;;;;;18.33;5.70;;;;;;;;;;5116701;28;20288;-66
2022/11/24 00:47:01;;;;;;;9.60;5.28;;;;;;;;;;5116681;28;20193;-66
2022/11/24 00:49:28;;;;;;;16.70;7.60;;;;;;;;;;5116161;28;20728;-67
2022/11/24 00:51:55;;;;;;;20.05;6.10;;;;;;;;;;5116238;28;20676;-66
2022/11/24 00:54:23;;;;;;;15.43;5.35;;;;;;;;;;5116663;28;20545;-67
2022/11/24 00:56:50;;;;;;;13.30;5.10;;;;;;;;;;5117072;28;20219;-67
2022/11/24 00:59:18;;;;;;;11.07;4.75;;;;;;;;;;5116053;28;20232;-66
2022/11/24 01:01:45;;;;;;;20.73;5.35;;;;;;;;;;5116024;28;20696;-66
2022/11/24 01:04:13;;;;;;;21.40;5.85;;;;;;;;;;5116343;28;20188;-67
2022/11/24 01:06:40;;;;;;;17.05;5.10;;;;;;;;;;5116893;28;20192;-67
2022/11/24 01:09:07;;;;;;;15.45;5.97;;;;;;;;;;5116197;28;20200;-67
2022/11/24 01:14:16;;;;;;;13.38;6.15;;;;;;;;;;5115690;28;20195;-67
2022/11/24 01:16:44;;;;;;;12.68;4.47;;;;;;;;;;5115886;28;20199;-67
2022/11/24 01:19:12;;;;;;;14.85;5.60;;;;;;;;;;5116040;28;20192;-67
2022/11/24 01:21:39;;;;;;;24.23;7.57;;;;;;;;;;5116122;28;20213;-66
2022/11/24 01:24:06;;;;;;;14.52;5.65;;;;;;;;;;5115920;28;20439;-66
2022/11/24 01:26:33;;;;;;;13.75;4.85;;;;;;;;;;5116036;28;20200;-67
2022/11/24 01:29:01;;;;;;;23.38;4.97;;;;;;;;;;5115979;28;20189;-67
2022/11/24 01:31:28;;;;;;;11.20;4.30;;;;;;;;;;5116105;28;20564;-67
2022/11/24 01:33:57;;;;;;;13.85;4.97;;;;;;;;;;5115879;28;20193;-67
2022/11/24 01:36:24;;;;;;;14.63;4.72;;;;;;;;;;5115989;28;20561;-67
2022/11/24 01:38:52;;;;;;;21.25;5.20;;;;;;;;;;5116210;28;20200;-66
2022/11/24 01:41:20;;;;;;;21.92;6.57;;;;;;;;;;5116256;28;20199;-66
2022/11/24 01:43:48;;;;;;;25.10;5.00;;;;;;;;;;5115974;28;20674;-67
2022/11/24 01:46:18;;;;;;;17.73;4.68;;;;;;;;;;5116111;28;20197;-67
2022/11/24 01:48:47;;;;;;;11.90;4.65;;;;;;;;;;5115795;28;20200;-67
2022/11/24 01:51:17;;;;;;;17.38;4.45;;;;;;;;;;5115815;28;20196;-66
2022/11/24 01:53:46;;;;;;;15.85;4.05;;;;;;;;;;5115344;28;20534;-67
2022/11/24 01:56:14;;;;;;;18.98;6.10;;;;;;;;;;5115602;28;20207;-67
2022/11/24 01:58:43;;;;;;;15.82;4.25;;;;;;;;;;5114945;28;20207;-66
2022/11/24 02:01:11;;;;;;;13.35;3.70;;;;;;;;;;5114743;28;20199;-66
2022/11/24 02:03:40;;;;;;;14.50;5.55;;;;;;;;;;5114769;28;20225;-67
2022/11/24 02:06:09;;;;;;;26.17;5.50;;;;;;;;;;5115977;28;20208;-66
2022/11/24 02:08:41;;;;;;;17.75;5.10;;;;;;;;;;5114827;28;20650;-66
2022/11/24 02:11:09;;;;;;;18.83;5.63;;;;;;;;;;5115118;28;20193;-67
2022/11/24 02:13:37;;;;;;;16.67;4.80;;;;;;;;;;5115467;28;20209;-67
2022/11/24 02:16:05;;;;;;;15.55;4.40;;;;;;;;;;5114983;28;20192;-67
2022/11/24 02:18:32;;;;;;;13.73;4.70;;;;;;;;;;5114611;28;20654;-67
2022/11/24 02:21:00;;;;;;;19.13;4.40;;;;;;;;;;5114821;27;20899;-67
2022/11/24 02:23:32;;;;;;;16.38;4.10;;;;;;;;;;5115078;28;20569;-67
2022/11/24 02:26:05;;;;;;;17.42;4.85;;;;;;;;;;5114443;28;20642;-67
2022/11/24 02:28:34;;;;;;;12.13;5.43;;;;;;;;;;5115116;28;20275;-67
2022/11/24 02:31:02;;;;;;;11.05;4.13;;;;;;;;;;5114597;28;20301;-67
2022/11/24 02:33:29;;;;;;;13.90;4.03;;;;;;;;;;5114713;28;20502;-67
2022/11/24 02:35:56;;;;;;;21.33;4.43;;;;;;;;;;5114646;28;20539;-67
2022/11/24 02:38:31;;;;;;;25.17;5.22;;;;;;;;;;5114816;28;20193;-67
2022/11/24 02:40:59;;;;;;;14.57;5.03;;;;;;;;;;5114524;28;20200;-67
2022/11/24 02:43:26;;;;;;;20.30;4.63;;;;;;;;;;5114202;28;20327;-67
2022/11/24 02:45:55;;;;;;;14.70;4.32;;;;;;;;;;5114305;28;20712;-67
2022/11/24 02:48:22;;;;;;;19.33;4.10;;;;;;;;;;5114717;28;20218;-67
2022/11/24 02:50:49;;;;;;;21.70;5.65;;;;;;;;;;5114314;28;20192;-67
2022/11/24 02:53:16;;;;;;;14.68;5.35;;;;;;;;;;5114331;28;20204;-66
2022/11/24 02:55:43;;;;;;;14.10;4.05;;;;;;;;;;5113926;28;20196;-66
2022/11/24 02:58:11;;;;;;;13.55;4.97;;;;;;;;;;5114001;28;20189;-66
2022/11/24 03:00:38;;;;;;;13.77;5.72;;;;;;;;;;5114128;28;20684;-67
2022/11/24 03:03:06;;;;;;;19.92;5.53;;;;;;;;;;5114302;28;20211;-66
2022/11/24 03:05:34;;;;;;;5.15;3.20;;;;;;;;;;5113865;28;20657;-67
2022/11/24 03:08:01;;;;;;;14.15;4.03;;;;;;;;;;5114228;28;20213;-66
2022/11/24 03:10:28;;;;;;;20.55;4.05;;;;;;;;;;5113969;28;20189;-67
2022/11/24 03:12:55;;;;;;;15.02;4.63;;;;;;;;;;5113859;28;20283;-67
2022/11/24 03:15:23;;;;;;;25.20;4.85;;;;;;;;;;5113498;28;20283;-67
2022/11/24 03:17:50;;;;;;;13.43;4.60;;;;;;;;;;5114036;28;20192;-67
2022/11/24 03:20:19;;;;;;;12.13;4.88;;;;;;;;;;5114093;28;20192;-68
2022/11/24 03:22:46;;;;;;;14.10;4.35;;;;;;;;;;5113917;28;20228;-67
2022/11/24 03:25:13;;;;;;;12.13;4.85;;;;;;;;;;5113896;28;20203;-67
2022/11/24 03:27:41;;;;;;;13.63;3.90;;;;;;;;;;5113631;28;20195;-67
2022/11/24 03:30:08;;;;;;;24.03;4.67;;;;;;;;;;5113924;28;20242;-67
2022/11/24 03:32:36;;;;;;;15.18;4.47;;;;;;;;;;5113913;28;20445;-66
2022/11/24 03:35:03;;;;;;;16.85;4.53;;;;;;;;;;5113496;28;20193;-67
2022/11/24 03:37:32;;;;;;;26.88;3.72;;;;;;;;;;5114396;28;20195;-67
2022/11/24 03:39:59;;;;;;;12.15;3.58;;;;;;;;;;5113806;28;20197;-66
2022/11/24 03:42:26;;;;;;;20.38;4.13;;;;;;;;;;5113398;28;20239;-67
2022/11/24 03:44:53;;;;;;;15.90;4.70;;;;;;;;;;5113781;28;20195;-67
2022/11/24 03:47:21;;;;;;;25.05;3.88;;;;;;;;;;5113380;28;20193;-67
2022/11/24 03:49:48;;;;;;;12.30;4.38;;;;;;;;;;5113456;28;20197;-66
2022/11/24 03:52:15;;;;;;;12.45;4.43;;;;;;;;;;5113834;28;20201;-67
2022/11/24 03:54:46;;;;;;;13.63;4.40;;;;;;;;;;5113962;28;20189;-67
2022/11/24 03:57:13;;;;;;;21.15;4.68;;;;;;;;;;5113826;28;20576;-67
2022/11/24 03:59:40;;;;;;;9.52;4.00;;;;;;;;;;5113658;28;20195;-67
2022/11/24 04:02:08;;;;;;;14.48;4.35;;;;;;;;;;5113398;28;20212;-68
2022/11/24 04:04:35;;;;;;;18.23;4.30;;;;;;;;;;5113571;28;20193;-67
2022/11/24 04:07:02;;;;;;;12.10;4.60;;;;;;;;;;5113476;28;20215;-67
2022/11/24 04:09:29;;;;;;;19.50;4.18;;;;;;;;;;5113568;28;20550;-66
2022/11/24 04:14:43;;;;;;;17.88;4.20;;;;;;;;;;5113604;28;20230;-67
2022/11/24 04:17:10;;;;;;;28.60;5.35;;;;;;;;;;5113368;28;20199;-67
2022/11/24 04:19:37;;;;;;;11.45;4.03;;;;;;;;;;5113455;28;20193;-66
2022/11/24 04:22:04;;;;;;;24.08;4.32;;;;;;;;;;5113460;28;20199;-67
2022/11/24 04:24:31;;;;;;;15.38;5.00;;;;;;;;;;5113985;28;20286;-67
2022/11/24 04:27:00;;;;;;;15.13;5.20;;;;;;;;;;5117016;28;20292;-67
2022/11/24 04:29:27;;;;;;;29.05;4.85;;;;;;;;;;5117515;28;20319;-67
2022/11/24 04:31:54;;;;;;;17.40;3.92;;;;;;;;;;5117118;28;20188;-67
2022/11/24 04:34:21;;;;;;;15.85;3.90;;;;;;;;;;5116957;28;20193;-66
2022/11/24 04:36:49;;;;;;;12.80;4.68;;;;;;;;;;5116870;28;20201;-67
2022/11/24 04:39:16;;;;;;;13.07;4.15;;;;;;;;;;5116883;28;20196;-67
2022/11/24 04:41:43;;;;;;;13.82;4.15;;;;;;;;;;5116416;28;20201;-67
2022/11/24 04:44:12;;;;;;;20.30;4.78;;;;;;;;;;5117200;28;20250;-66
2022/11/24 04:46:39;;;;;;;10.18;3.85;;;;;;;;;;5116641;28;20203;-66
2022/11/24 04:49:10;;;;;;;16.20;4.73;;;;;;;;;;5116685;28;20206;-65
2022/11/24 04:51:37;;;;;;;9.50;3.50;;;;;;;;;;5117236;28;20463;-64
2022/11/24 04:54:04;;;;;;;19.30;4.07;;;;;;;;;;5116598;28;20545;-65
2022/11/24 04:56:32;;;;;;;20.03;4.00;;;;;;;;;;5116502;28;20578;-64
2022/11/24 04:58:59;;;;;;;11.07;4.20;;;;;;;;;;5116805;28;20472;-64
2022/11/24 05:01:28;;;;;;;16.58;4.32;;;;;;;;;;5116825;28;20442;-64
2022/11/24 05:03:55;;;;;;;17.70;5.70;;;;;;;;;;5116078;28;20677;-65
2022/11/24 05:06:23;;;;;;;15.40;4.05;;;;;;;;;;5116336;28;20193;-64
2022/11/24 05:08:50;;;;;;;20.08;4.75;;;;;;;;;;5115919;28;20199;-64
2022/11/24 05:11:18;;;;;;;16.88;5.47;;;;;;;;;;5114759;28;20189;-64
2022/11/24 05:13:45;;;;;;;18.10;4.20;;;;;;;;;;5115216;28;20196;-64
2022/11/24 05:16:12;;;;;;;8.13;3.28;;;;;;;;;;5115031;28;20193;-65
2022/11/24 05:18:41;;;;;;;10.52;3.95;;;;;;;;;;5114954;28;20197;-64
2022/11/24 05:21:08;;;;;;;15.70;4.50;;;;;;;;;;5115992;28;20196;-64
2022/11/24 05:23:36;;;;;;;11.35;4.53;;;;;;;;;;5115271;28;20220;-64
2022/11/24 05:26:04;;;;;;;20.40;6.53;;;;;;;;;;5115798;28;20192;-64
2022/11/24 05:28:31;;;;;;;22.60;7.68;;;;;;;;;;5115344;28;20195;-64
2022/11/24 05:30:59;;;;;;;16.47;4.93;;;;;;;;;;5115450;28;20654;-64
2022/11/24 05:33:27;;;;;;;21.27;4.53;;;;;;;;;;5115710;28;20465;-64
2022/11/24 05:35:56;;;;;;;18.25;5.25;;;;;;;;;;5114901;28;20717;-65
2022/11/24 05:38:23;;;;;;;34.47;6.10;;;;;;;;;;5114838;28;20650;-64
2022/11/24 05:40:50;;;;;;;13.32;4.75;;;;;;;;;;5115523;28;20789;-64
2022/11/24 05:43:18;;;;;;;26.37;4.20;;;;;;;;;;5114747;28;20681;-64
2022/11/24 05:45:45;;;;;;;12.67;4.27;;;;;;;;;;5115526;28;20441;-64
2022/11/24 05:48:13;;;;;;;11.68;4.68;;;;;;;;;;5115386;28;20529;-64
2022/11/24 05:50:40;;;;;;;12.70;4.70;;;;;;;;;;5115344;28;20638;-65
2022/11/24 05:53:10;;;;;;;25.97;7.53;;;;;;;;;;5114942;28;20441;-64
2022/11/24 05:55:37;;;;;;;16.95;5.43;;;;;;;;;;5115331;28;20434;-65
2022/11/24 05:58:05;;;;;;;18.40;4.93;;;;;;;;;;5114889;28;20205;-64
2022/11/24 06:00:34;;;;;;;18.98;3.80;;;;;;;;;;5115485;28;20193;-64
2022/11/24 06:03:01;;;;;;;17.85;4.75;;;;;;;;;;5114712;28;20217;-65
2022/11/24 06:05:29;;;;;;;13.65;5.70;;;;;;;;;;5114978;28;20199;-64
2022/11/24 06:07:56;;;;;;;18.38;4.82;;;;;;;;;;5115065;28;20308;-64
2022/11/24 06:10:25;;;;;;;12.80;5.10;;;;;;;;;;5114811;28;20724;-64
2022/11/24 06:12:52;;;;;;;17.65;4.70;;;;;;;;;;5114985;28;20443;-66
2022/11/24 06:15:19;;;;;;;17.42;4.47;;;;;;;;;;5115055;28;20196;-69
2022/11/24 06:17:53;;;;;;;21.40;5.88;;;;;;;;;;5114880;28;20196;-67
2022/11/24 06:20:20;;;;;;;17.98;5.25;;;;;;;;;;5115004;28;20188;-66
2022/11/24 06:22:48;;;;;;;15.93;4.40;;;;;;;;;;5114422;28;20197;-66
2022/11/24 06:25:15;;;;;;;18.30;5.03;;;;;;;;;;5114875;28;20189;-66
2022/11/24 06:27:44;;;;;;;18.50;5.28;;;;;;;;;;5114365;28;20654;-66
2022/11/24 06:30:12;;;;;;;14.23;4.50;;;;;;;;;;5114699;28;20203;-66
2022/11/24 06:32:43;;;;;;;25.43;5.87;;;;;;;;;;5114809;28;20200;-67
2022/11/24 06:35:11;;;;;;;20.95;7.20;;;;;;;;;;5115026;28;20484;-67
2022/11/24 06:37:38;;;;;;;20.48;4.40;;;;;;;;;;5114540;28;20213;-67
2022/11/24 06:40:07;;;;;;;25.45;5.28;;;;;;;;;;5114637;28;20265;-66
2022/11/24 06:42:34;;;;;;;20.33;4.07;;;;;;;;;;5114535;28;20220;-66
2022/11/24 06:45:03;;;;;;;18.87;4.50;;;;;;;;;;5114485;28;20199;-66
2022/11/24 06:47:30;;;;;;;23.33;5.03;;;;;;;;;;5114496;28;20450;-66
2022/11/24 06:49:58;;;;;;;20.25;8.18;;;;;;;;;;5114379;28;20200;-67
2022/11/24 06:52:25;;;;;;;19.35;4.43;;;;;;;;;;5114232;28;20195;-67
2022/11/24 06:54:52;;;;;;;19.10;6.10;;;;;;;;;;5114272;28;20553;-66
2022/11/24 06:57:19;;;;;;;20.73;5.57;;;;;;;;;;5115195;28;20254;-66
2022/11/24 06:59:46;;;;;;;19.33;5.60;;;;;;;;;;5114216;28;20442;-66
2022/11/24 07:02:15;;;;;;;25.33;5.45;;;;;;;;;;5114967;28;20189;-66
2022/11/24 07:04:44;;;;;;;20.05;4.75;;;;;;;;;;5114077;28;20570;-67
2022/11/24 07:07:11;;;;;;;17.87;5.20;;;;;;;;;;5114088;28;20189;-67
2022/11/24 07:09:39;;;;;;;25.02;5.95;;;;;;;;;;5114103;28;20800;-67
2022/11/24 07:12:06;;;;;;;24.00;5.30;;;;;;;;;;5113991;28;20192;-66
2022/11/24 07:14:33;;;;;;;22.90;5.60;;;;;;;;;;5114054;28;20780;-67
2022/11/24 07:17:01;;;;;;;18.50;4.70;;;;;;;;;;5114133;28;20189;-66
2022/11/24 07:19:30;;;;;;;26.33;5.10;;;;;;;;;;5114063;28;20255;-67
2022/11/24 07:21:57;;;;;;;24.15;5.63;;;;;;;;;;5114048;28;20442;-68
2022/11/24 07:24:24;;;;;;;24.48;5.65;;;;;;;;;;5113930;28;20216;-67
2022/11/24 07:26:51;;;;;;;29.88;7.15;;;;;;;;;;5114231;28;20192;-67
2022/11/24 07:29:18;;;;;;;18.63;6.23;;;;;;;;;;5113847;28;20711;-67
2022/11/24 07:31:46;;;;;;;23.30;5.60;;;;;;;;;;5114030;28;20526;-67
2022/11/24 07:34:14;;;;;;;23.17;5.70;;;;;;;;;;5113451;28;20196;-67
2022/11/24 07:36:43;;;;;;;23.40;7.57;;;;;;;;;;5113577;28;20450;-67
2022/11/24 07:39:11;;;;;;;18.10;5.60;;;;;;;;;;5114158;28;20442;-67
2022/11/24 07:41:38;;;;;;;18.00;5.10;;;;;;;;;;5113355;28;20451;-67
2022/11/24 07:44:05;;;;;;;16.50;5.03;;;;;;;;;;5113727;28;20204;-67
2022/11/24 07:46:32;;;;;;;18.98;5.30;;;;;;;;;;5113983;28;20197;-67
2022/11/24 07:49:00;;;;;;;19.50;5.87;;;;;;;;;;5113693;28;20190;-67
2022/11/24 07:51:27;;;;;;;22.15;6.45;;;;;;;;;;5113435;28;20440;-68
2022/11/24 07:53:55;;;;;;;19.80;5.60;;;;;;;;;;5113372;28;20197;-67
2022/11/24 07:56:24;;;;;;;21.10;6.20;;;;;;;;;;5114258;28;20481;-68
2022/11/24 07:58:52;;;;;;;20.37;5.90;;;;;;;;;;5113298;28;20445;-67
2022/11/24 08:01:19;;;;;;;19.98;5.80;;;;;;;;;;5117169;28;20449;-67
2022/11/24 08:03:47;;;;;;;18.80;6.03;;;;;;;;;;5117147;28;20223;-67
2022/11/24 08:06:14;;;;;;;17.37;6.30;;;;;;;;;;5117522;28;20449;-67
2022/11/24 08:08:41;;;;;;;15.98;6.93;;;;;;;;;;5117122;28;20924;-67
2022/11/24 08:11:11;;;;;;;23.63;6.03;;;;;;;;;;5117644;28;20553;-67
2022/11/24 08:13:38;;;;;;;19.70;6.93;;;;;;;;;;5117884;28;20209;-66
2022/11/24 08:16:06;;;;;;;24.20;6.83;;;;;;;;;;5117558;28;20680;-67
2022/11/24 08:18:33;;;;;;;22.97;6.20;;;;;;;;;;5117814;28;20440;-67
2022/11/24 08:21:01;;;;;;;22.08;6.93;;;;;;;;;;5117141;28;20443;-66
2022/11/24 08:23:28;;;;;;;19.90;6.97;;;;;;;;;;5116895;28;20217;-67
2022/11/24 08:25:56;;;;;;;18.23;6.00;;;;;;;;;;5117257;28;20653;-67
2022/11/24 08:28:24;;;;;;;18.13;6.45;;;;;;;;;;5116870;28;20430;-67
2022/11/24 08:30:52;;;;;;;21.40;6.53;;;;;;;;;;5117033;28;20191;-68
2022/11/24 08:33:19;;;;;;;15.98;7.13;;;;;;;;;;5116714;28;20668;-68
2022/11/24 08:35:46;;;;;;;16.73;6.70;;;;;;;;;;5117103;28;20383;-66
2022/11/24 08:38:15;;;;;;;24.80;6.97;;;;;;;;;;5116701;28;20439;-67
2022/11/24 08:40:43;;;;;;;35.05;6.72;;;;;;;;;;5117045;28;20447;-67
2022/11/24 08:43:10;;;;;;;25.97;7.13;;;;;;;;;;5117124;28;20315;-67
2022/11/24 08:45:38;;;;;;;24.10;5.40;;;;;;;;;;5117061;28;20473;-66
2022/11/24 08:48:06;;;;;;;17.17;5.20;;;;;;;;;;5116920;28;20927;-66
2022/11/24 08:50:34;;;;;;;24.03;5.77;;;;;;;;;;5117279;28;20436;-68
2022/11/24 08:53:01;;;;;;;35.85;7.82;;;;;;;;;;5116981;28;20446;-67
2022/11/24 08:55:28;;;;;;;25.17;6.70;;;;;;;;;;5116871;28;20201;-67
2022/11/24 08:57:56;;;;;;;16.33;4.87;;;;;;;;;;5116264;28;20480;-66
2022/11/24 09:00:23;;;;;;;18.70;6.00;;;;;;;;;;5116457;28;20442;-66
2022/11/24 09:02:55;;;;;;;20.40;6.33;;;;;;;;;;5116675;28;20443;-66
2022/11/24 09:05:23;;;;;;;14.17;7.70;;;;;;;;;;5115905;28;20982;-66
2022/11/24 09:07:50;;;;;;;17.98;5.35;;;;;;;;;;5115527;28;20453;-67
2022/11/24 09:10:17;;;;;;;15.33;5.73;;;;;;;;;;5116072;28;20300;-66
2022/11/24 09:12:45;;;;;;;14.53;4.83;;;;;;;;;;5114807;28;20440;-66
2022/11/24 09:15:15;;;;;;;17.60;5.20;;;;;;;;;;5116180;27;20435;-66
2022/11/24 09:17:42;;;;;;;14.83;5.00;;;;;;;;;;5115869;28;20472;-66
2022/11/24 09:20:11;;;;;;;25.53;4.70;;;;;;;;;;5116010;28;20442;-66
2022/11/24 09:22:40;;;;;;;13.80;5.20;;;;;;;;;;5116148;28;20818;-66
2022/11/24 09:25:08;;;;;;;19.42;5.63;;;;;;;;;;5115858;28;20565;-67
2022/11/24 09:27:36;;;;;;;12.93;4.37;;;;;;;;;;5116022;28;20661;-66
2022/11/24 09:30:03;;;;;;;13.03;4.30;;;;;;;;;;5115481;28;20967;-66
2022/11/24 09:32:30;;;;;;;12.90;4.47;;;;;;;;;;5115831;28;20445;-66
2022/11/24 09:34:58;;;;;;;14.93;4.50;;;;;;;;;;5115687;28;20448;-67
2022/11/24 09:37:26;;;;;;;15.60;4.77;;;;;;;;;;5116120;28;20205;-66
2022/11/24 09:39:53;;;;;;;10.05;5.05;;;;;;;;;;5115353;28;20449;-67
2022/11/24 09:42:29;;;;;;;17.00;5.93;;;;;;;;;;5116189;28;20227;-66
2022/11/24 09:45:17;;;;;;;11.02;4.72;;;;;;;;;;5115920;28;20467;-66
2022/11/24 09:47:52;;;;;;;12.90;4.20;;;;;;;;;;5115853;28;20190;-66
2022/11/24 09:50:21;;;;;;;19.05;4.53;;;;;;;;;;5115168;28;20185;-66
2022/11/24 09:52:51;;;;;;;13.13;4.57;;;;;;;;;;5115519;28;20677;-66
2022/11/24 09:55:23;;;;;;;16.40;4.60;;;;;;;;;;5115068;28;21056;-66
2022/11/24 09:57:51;;;;;;;11.38;5.55;;;;;;;;;;5115634;28;20446;-66
2022/11/24 10:00:19;;;;;;;11.43;5.30;;;;;;;;;;5115689;28;20674;-65
2022/11/24 10:02:48;;;;;;;10.13;4.72;;;;;;;;;;5115224;28;20653;-66
2022/11/24 10:05:15;;;;;;;12.87;5.87;;;;;;;;;;5114745;28;20681;-67
2022/11/24 10:07:44;;;;;;;11.73;5.10;;;;;;;;;;5115178;28;20470;-66
2022/11/24 10:10:16;;;;;;;8.77;4.70;;;;;;;;;;5114615;28;20197;-66
2022/11/24 10:12:48;;;;;;;10.30;4.67;;;;;;;;;;5114827;28;20459;-67
2022/11/24 10:15:30;;;;;;;17.02;5.30;;;;;;;;;;5114750;28;20435;-66
2022/11/24 10:18:10;;;;;;;17.20;5.47;;;;;;;;;;5114768;28;20654;-66
2022/11/24 10:20:43;;;;;;;14.00;4.60;;;;;;;;;;5114655;28;20626;-66
2022/11/24 10:23:19;;;;;;;15.10;6.33;;;;;;;;;;5114858;28;20427;-67
2022/11/24 10:25:50;;;;;;;14.63;5.13;;;;;;;;;;5114828;28;20565;-66
2022/11/24 10:28:18;;;;;;;11.10;4.57;;;;;;;;;;5115031;28;20514;-66
2022/11/24 10:30:45;;;;;;;11.70;6.10;;;;;;;;;;5114731;28;20438;-66
2022/11/24 10:33:17;;;;;;;12.67;5.93;;;;;;;;;;5114705;28;20530;-66
2022/11/24 10:35:47;;;;;;;11.13;4.83;;;;;;;;;;5115157;28;20777;-66
2022/11/24 10:38:24;;;;;;;12.00;7.07;;;;;;;;;;5115488;28;20758;-66
2022/11/24 10:41:00;;;;;;;13.80;7.03;;;;;;;;;;5114978;28;20443;-66
2022/11/24 10:43:28;;;;;;;17.67;7.93;;;;;;;;;;5115215;28;20462;-66
2022/11/24 10:45:56;;;;;;;9.10;6.70;;;;;;;;;;5115082;28;20829;-66
2022/11/24 10:48:25;;;;;;;13.40;6.22;;;;;;;;;;5114370;28;20434;-67
2022/11/24 10:50:54;;;;;;;13.47;8.27;;;;;;;;;;5114199;28;20197;-66
2022/11/24 10:53:23;;;;;;;13.13;5.47;;;;;;;;;;5114658;28;20435;-67
2022/11/24 10:56:03;;;;;;;17.67;6.33;;;;;;;;;;5114141;28;20529;-67
2022/11/24 10:58:31;;;;;;;15.63;6.15;;;;;;;;;;5114902;28;20419;-67
2022/11/24 11:01:00;;;;;;;13.87;6.67;;;;;;;;;;5113851;28;20189;-67
2022/11/24 11:03:27;;;;;;;14.90;7.17;;;;;;;;;;5114106;28;20452;-66
2022/11/24 11:05:57;;;;;;;13.40;6.13;;;;;;;;;;5114018;28;20482;-67
2022/11/24 11:08:25;;;;;;;14.37;6.53;;;;;;;;;;5113776;28;20439;-66
2022/11/24 11:11:08;;;;;;;17.83;7.00;;;;;;;;;;5114927;28;20450;-67
2022/11/24 11:13:36;;;;;;;13.93;6.50;;;;;;;;;;5114566;28;20522;-67
2022/11/24 11:16:14;;;;;;;10.57;5.23;;;;;;;;;;5113723;28;20456;-66
2022/11/24 11:18:47;;;;;;;10.40;6.00;;;;;;;;;;5114286;28;20899;-67
2022/11/24 11:21:25;;;;;;;10.30;5.33;;;;;;;;;;5114151;28;20572;-67
2022/11/24 11:23:52;;;;;;;6.33;4.40;;;;;;;;;;5113662;28;20438;-67
2022/11/24 11:26:20;;;;;;;7.40;5.20;;;;;;;;;;5113796;28;21003;-67
2022/11/24 11:29:00;;;;;;;10.23;5.23;;;;;;;;;;5113684;28;20473;-67
2022/11/24 11:31:27;;;;;;;11.43;4.47;;;;;;;;;;5114086;28;20434;-67
2022/11/24 11:33:56;;;;;;;18.00;4.80;;;;;;;;;;5113945;28;20453;-67
2022/11/24 11:36:23;;;;;;;6.97;4.63;;;;;;;;;;5117702;28;20442;-66
2022/11/24 11:38:51;;;;;;;14.13;6.00;;;;;;;;;;5117821;28;20449;-67
2022/11/24 11:41:21;;;;;;;8.00;4.40;;;;;;;;;;5117746;28;20449;-67
2022/11/24 11:43:51;;;;;;;8.17;5.13;;;;;;;;;;5118154;27;20991;-68
2022/11/24 11:46:19;;;;;;;10.47;4.47;;;;;;;;;;5118087;28;20462;-67
2022/11/24 11:48:48;;;;;;;7.57;4.20;;;;;;;;;;5117957;28;20435;-67
2022/11/24 11:51:27;;;;;;;9.10;4.30;;;;;;;;;;5118431;28;20438;-67
2022/11/24 11:54:00;;;;;;;9.97;4.53;;;;;;;;;;5117857;28;20433;-68
2022/11/24 11:56:29;;;;;;;13.47;5.53;;;;;;;;;;5117799;28;20441;-67
2022/11/24 11:59:06;;;;;;;12.20;4.27;;;;;;;;;;5117663;28;20443;-67
2022/11/24 12:01:46;;;;;;;40.67;5.90;;;;;;;;;;5117750;28;20426;-67
2022/11/24 12:04:16;;;;;;;8.67;4.03;;;;;;;;;;5117631;28;20425;-67
2022/11/24 12:07:05;;;;;;;8.30;5.00;;;;;;;;;;5117301;28;20458;-66
2022/11/24 12:09:40;;;;;;;5.93;3.70;;;;;;;;;;5112379;28;20944;-67
2022/11/24 12:12:16;;;;;;;4.97;3.97;;;;;;;;;;5118022;27;20446;-66
2022/11/24 12:14:47;;;;;;;9.40;4.87;;;;;;;;;;5118148;28;20855;-67
2022/11/24 12:17:19;;;;;;;9.23;4.50;;;;;;;;;;5117400;28;20784;-66
2022/11/24 12:19:52;;;;;;;7.43;3.97;;;;;;;;;;5116992;28;20431;-67
2022/11/24 12:22:23;;;;;;;7.57;3.43;;;;;;;;;;5117217;28;20438;-67
2022/11/24 12:24:55;;;;;;;7.00;4.40;;;;;;;;;;5116886;28;20473;-67
2022/11/24 12:27:28;;;;;;;14.47;3.97;;;;;;;;;;5117451;28;20427;-67
2022/11/24 12:30:13;;;;;;;10.27;5.00;;;;;;;;;;5116940;28;20518;-67
2022/11/24 12:32:50;;;;;;;13.00;5.67;;;;;;;;;;5117383;27;20427;-67
2022/11/24 12:35:21;;;;;;;10.27;4.43;;;;;;;;;;5116701;28;20532;-66
2022/11/24 12:37:53;;;;;;;7.23;4.70;;;;;;;;;;5117042;28;20896;-67
2022/11/24 12:40:28;;;;;;;13.40;4.40;;;;;;;;;;5117053;28;20514;-66
2022/11/24 12:42:59;;;;;;;16.70;5.00;;;;;;;;;;5116828;28;21018;-67
2022/11/24 12:45:33;;;;;;;7.67;5.00;;;;;;;;;;5116657;28;20550;-66
2022/11/24 12:48:13;;;;;;;10.70;4.50;;;;;;;;;;5116508;28;20991;-67
2022/11/24 12:50:42;;;;;;;7.93;4.50;;;;;;;;;;5116805;28;20521;-66
2022/11/24 12:53:13;;;;;;;10.63;4.60;;;;;;;;;;5116683;28;20496;-66
2022/11/24 12:55:40;;;;;;;15.10;5.40;;;;;;;;;;5116710;28;20799;-67
2022/11/24 12:58:10;;;;;;;9.50;4.30;;;;;;;;;;5116602;28;20439;-66
2022/11/24 13:00:42;;;;;;;10.87;3.90;;;;;;;;;;5116691;28;20788;-68
2022/11/24 13:03:20;;;;;;;9.90;5.20;;;;;;;;;;5116865;28;20518;-67
2022/11/24 13:05:51;;;;;;;8.93;4.57;;;;;;;;;;5116769;28;20463;-67
2022/11/24 13:08:19;;;;;;;10.00;4.47;;;;;;;;;;5117028;28;20433;-67
2022/11/24 13:10:46;;;;;;;12.17;4.30;;;;;;;;;;5116284;28;20462;-67
2022/11/24 13:13:14;;;;;;;8.90;4.50;;;;;;;;;;5116259;28;20996;-67
2022/11/24 13:15:56;;;;;;;11.27;5.03;;;;;;;;;;5115936;28;20535;-67
2022/11/24 13:18:47;;;;;;;9.50;4.10;;;;;;;;;;5113973;28;20478;-67
2022/11/24 13:21:34;;;;;;;13.85;3.90;;;;;;;;;;5115853;28;20518;-67
2022/11/24 13:24:02;;;;;;;10.90;3.30;;;;;;;;;;5115887;28;20229;-67
2022/11/24 13:26:30;;;;;;;8.73;3.70;;;;;;;;;;5116160;28;20501;-67
2022/11/24 13:29:00;;;;;;;6.93;3.90;;;;;;;;;;5116236;28;20439;-67
2022/11/24 13:31:33;;;;;;;7.10;3.60;;;;;;;;;;5116819;28;20514;-69
2022/11/24 13:34:01;;;;;;;13.43;4.53;;;;;;;;;;5115890;28;20427;-68
2022/11/24 13:36:30;;;;;;;10.20;4.13;;;;;;;;;;5115852;28;20872;-68
2022/11/24 13:38:58;;;;;;;14.43;6.80;;;;;;;;;;5115474;28;20518;-68
2022/11/24 13:41:43;;;;;;;15.00;4.67;;;;;;;;;;5116181;28;20965;-68
2022/11/24 13:44:34;;;;;;;14.13;4.50;;;;;;;;;;5115603;28;20514;-67
2022/11/24 13:47:02;;;;;;;7.13;3.67;;;;;;;;;;5100355;28;20492;-68
2022/11/24 13:49:39;;;;;;;10.50;4.50;;;;;;;;;;5115166;28;20946;-67
2022/11/24 13:52:30;;;;;;;12.83;4.50;;;;;;;;;;5115622;28;20423;-67
2022/11/24 13:54:57;;;;;;;11.77;4.13;;;;;;;;;;5115305;28;20443;-72
2022/11/24 13:57:34;;;;;;;10.57;4.07;;;;;;;;;;5114635;28;20468;-67
2022/11/24 14:00:02;;;;;;;10.20;4.07;;;;;;;;;;5115387;28;20429;-67
2022/11/24 14:02:30;;;;;;;7.57;3.87;;;;;;;;;;5115662;28;20443;-67
2022/11/24 14:04:59;;;;;;;18.90;5.20;;;;;;;;;;5114743;28;20928;-66
2022/11/24 14:07:33;;;;;;;7.20;4.00;;;;;;;;;;5114855;28;21023;-66
2022/11/24 14:10:00;;;;;;;9.23;3.90;;;;;;;;;;5115146;28;20430;-67
2022/11/24 14:12:32;;;;;;;10.07;4.40;;;;;;;;;;5115260;28;20486;-67
2022/11/24 14:15:20;;;;;;;7.77;3.57;;;;;;;;;;5113486;28;20479;-67
2022/11/24 14:17:47;;;;;;;8.13;4.20;;;;;;;;;;5113812;28;20529;-67
2022/11/24 14:20:22;;;;;;;7.73;3.63;;;;;;;;;;5113661;28;20443;-67
2022/11/24 14:22:50;;;;;;;8.70;4.30;;;;;;;;;;5114410;28;20545;-66
2022/11/24 14:25:21;;;;;;;7.70;3.57;;;;;;;;;;5114311;28;20480;-68
2022/11/24 14:27:48;;;;;;;15.77;4.87;;;;;;;;;;5114015;28;20449;-66
2022/11/24 14:30:20;;;;;;;14.33;5.00;;;;;;;;;;5114552;28;20454;-66
2022/11/24 14:32:57;;;;;;;12.70;5.77;;;;;;;;;;5114943;28;20431;-66
2022/11/24 14:35:26;;;;;;;23.07;4.63;;;;;;;;;;5114730;28;20448;-67
2022/11/24 14:37:53;;;;;;;12.53;4.17;;;;;;;;;;5114430;28;20534;-66
2022/11/24 14:40:35;;;;;;;13.87;4.27;;;;;;;;;;5114625;28;20488;-66
2022/11/24 14:43:03;;;;;;;8.57;4.40;;;;;;;;;;5112367;28;20471;-67
2022/11/24 14:45:31;;;;;;;18.47;5.00;;;;;;;;;;5114064;28;20520;-66
2022/11/24 14:47:58;;;;;;;11.27;4.23;;;;;;;;;;5113543;28;21015;-67